sensor_id;sensor_type;location;lat;lon;timestamp;P1;durP1;ratioP1;P2;durP2;ratioP2
74630;SDS011;63138;55.082;38.804;2022-11-20T00:01:30;11.05;;;5.80;;
74630;SDS011;63138;55.082;38.804;2022-11-20T00:03:57;14.82;;;6.85;;
74630;SDS011;63138;55.082;38.804;2022-11-20T00:06:24;10.93;;;5.33;;
74630;SDS011;63138;55.082;38.804;2022-11-20T00:08:51;10.13;;;6.13;;
74630;SDS011;63138;55.082;38.804;2022-11-20T00:11:20;13.20;;;6.05;;
74630;SDS011;63138;55.082;38.804;2022-11-20T00:13:48;13.45;;;6.93;;
74630;SDS011;63138;55.082;38.804;2022-11-20T00:16:17;15.05;;;6.70;;
74630;SDS011;63138;55.082;38.804;2022-11-20T00:18:44;11.90;;;6.60;;
74630;SDS011;63138;55.082;38.804;2022-11-20T00:21:12;10.27;;;4.93;;
74630;SDS011;63138;55.082;38.804;2022-11-20T00:23:39;16.52;;;7.95;;
74630;SDS011;63138;55.082;38.804;2022-11-20T00:26:06;11.23;;;6.32;;
74630;SDS011;63138;55.082;38.804;2022-11-20T00:28:34;14.57;;;7.00;;
74630;SDS011;63138;55.082;38.804;2022-11-20T00:31:00;11.23;;;6.33;;
74630;SDS011;63138;55.082;38.804;2022-11-20T00:33:31;14.25;;;6.35;;
74630;SDS011;63138;55.082;38.804;2022-11-20T00:36:10;12.93;;;7.00;;
74630;SDS011;63138;55.082;38.804;2022-11-20T00:38:38;12.73;;;5.82;;
74630;SDS011;63138;55.082;38.804;2022-11-20T00:41:05;13.13;;;6.18;;
74630;SDS011;63138;55.082;38.804;2022-11-20T00:43:34;11.93;;;5.50;;
74630;SDS011;63138;55.082;38.804;2022-11-20T00:46:00;11.35;;;5.93;;
74630;SDS011;63138;55.082;38.804;2022-11-20T00:48:33;11.05;;;5.82;;
74630;SDS011;63138;55.082;38.804;2022-11-20T00:50:59;10.23;;;5.97;;
74630;SDS011;63138;55.082;38.804;2022-11-20T00:53:25;8.68;;;5.43;;
74630;SDS011;63138;55.082;38.804;2022-11-20T00:58:25;12.18;;;6.13;;
74630;SDS011;63138;55.082;38.804;2022-11-20T01:01:01;12.38;;;6.60;;
74630;SDS011;63138;55.082;38.804;2022-11-20T01:03:34;10.23;;;4.77;;
74630;SDS011;63138;55.082;38.804;2022-11-20T01:06:01;10.63;;;6.10;;
74630;SDS011;63138;55.082;38.804;2022-11-20T01:08:33;8.55;;;5.45;;
74630;SDS011;63138;55.082;38.804;2022-11-20T01:11:01;10.48;;;5.82;;
74630;SDS011;63138;55.082;38.804;2022-11-20T01:13:29;12.25;;;5.60;;
74630;SDS011;63138;55.082;38.804;2022-11-20T01:16:26;11.53;;;5.57;;
74630;SDS011;63138;55.082;38.804;2022-11-20T01:19:03;11.77;;;6.25;;
74630;SDS011;63138;55.082;38.804;2022-11-20T01:21:33;10.68;;;5.15;;
74630;SDS011;63138;55.082;38.804;2022-11-20T01:24:04;10.75;;;5.00;;
74630;SDS011;63138;55.082;38.804;2022-11-20T01:26:33;12.73;;;5.82;;
74630;SDS011;63138;55.082;38.804;2022-11-20T01:29:04;11.17;;;5.60;;
74630;SDS011;63138;55.082;38.804;2022-11-20T01:31:31;11.63;;;6.20;;
74630;SDS011;63138;55.082;38.804;2022-11-20T01:34:05;9.38;;;5.70;;
74630;SDS011;63138;55.082;38.804;2022-11-20T01:36:35;9.13;;;5.90;;
74630;SDS011;63138;55.082;38.804;2022-11-20T01:39:03;12.32;;;6.32;;
74630;SDS011;63138;55.082;38.804;2022-11-20T01:41:31;10.93;;;6.23;;
74630;SDS011;63138;55.082;38.804;2022-11-20T01:44:18;9.82;;;5.60;;
74630;SDS011;63138;55.082;38.804;2022-11-20T01:49:33;10.20;;;5.22;;
74630;SDS011;63138;55.082;38.804;2022-11-20T01:52:07;11.50;;;6.25;;
74630;SDS011;63138;55.082;38.804;2022-11-20T01:55:09;8.83;;;5.20;;
74630;SDS011;63138;55.082;38.804;2022-11-20T01:57:44;11.77;;;5.55;;
74630;SDS011;63138;55.082;38.804;2022-11-20T02:00:13;10.98;;;5.97;;
74630;SDS011;63138;55.082;38.804;2022-11-20T02:02:43;11.50;;;5.80;;
74630;SDS011;63138;55.082;38.804;2022-11-20T02:07:47;12.97;;;6.37;;
74630;SDS011;63138;55.082;38.804;2022-11-20T02:10:14;13.73;;;7.10;;
74630;SDS011;63138;55.082;38.804;2022-11-20T02:12:40;14.23;;;6.95;;
74630;SDS011;63138;55.082;38.804;2022-11-20T02:15:44;9.82;;;5.55;;
74630;SDS011;63138;55.082;38.804;2022-11-20T02:18:11;11.43;;;5.97;;
74630;SDS011;63138;55.082;38.804;2022-11-20T02:20:40;10.10;;;4.97;;
74630;SDS011;63138;55.082;38.804;2022-11-20T02:23:12;14.52;;;6.70;;
74630;SDS011;63138;55.082;38.804;2022-11-20T02:25:42;12.07;;;7.60;;
74630;SDS011;63138;55.082;38.804;2022-11-20T02:28:08;7.65;;;4.60;;
74630;SDS011;63138;55.082;38.804;2022-11-20T02:30:35;13.90;;;7.60;;
74630;SDS011;63138;55.082;38.804;2022-11-20T02:33:01;14.20;;;6.30;;
74630;SDS011;63138;55.082;38.804;2022-11-20T02:37:53;9.93;;;5.33;;
74630;SDS011;63138;55.082;38.804;2022-11-20T02:40:21;12.80;;;6.03;;
74630;SDS011;63138;55.082;38.804;2022-11-20T02:42:47;12.40;;;5.55;;
74630;SDS011;63138;55.082;38.804;2022-11-20T02:45:13;10.53;;;5.43;;
74630;SDS011;63138;55.082;38.804;2022-11-20T02:47:39;15.98;;;6.72;;
74630;SDS011;63138;55.082;38.804;2022-11-20T02:50:05;14.32;;;7.57;;
74630;SDS011;63138;55.082;38.804;2022-11-20T02:52:31;10.40;;;5.68;;
74630;SDS011;63138;55.082;38.804;2022-11-20T02:54:57;9.63;;;4.82;;
74630;SDS011;63138;55.082;38.804;2022-11-20T02:57:22;11.75;;;6.88;;
74630;SDS011;63138;55.082;38.804;2022-11-20T02:59:48;14.37;;;5.93;;
74630;SDS011;63138;55.082;38.804;2022-11-20T03:02:14;12.73;;;7.00;;
74630;SDS011;63138;55.082;38.804;2022-11-20T03:04:40;10.90;;;6.60;;
74630;SDS011;63138;55.082;38.804;2022-11-20T03:07:05;12.77;;;7.95;;
74630;SDS011;63138;55.082;38.804;2022-11-20T03:09:33;15.45;;;10.20;;
74630;SDS011;63138;55.082;38.804;2022-11-20T03:11:59;10.55;;;7.53;;
74630;SDS011;63138;55.082;38.804;2022-11-20T03:14:27;16.10;;;10.82;;
74630;SDS011;63138;55.082;38.804;2022-11-20T03:16:53;11.17;;;6.80;;
74630;SDS011;63138;55.082;38.804;2022-11-20T03:19:18;15.65;;;8.82;;
74630;SDS011;63138;55.082;38.804;2022-11-20T03:21:44;13.53;;;7.40;;
74630;SDS011;63138;55.082;38.804;2022-11-20T03:24:10;14.20;;;8.20;;
74630;SDS011;63138;55.082;38.804;2022-11-20T03:26:36;11.15;;;7.35;;
74630;SDS011;63138;55.082;38.804;2022-11-20T03:29:02;13.38;;;8.43;;
74630;SDS011;63138;55.082;38.804;2022-11-20T03:31:39;13.80;;;7.68;;
74630;SDS011;63138;55.082;38.804;2022-11-20T03:34:06;10.27;;;5.03;;
74630;SDS011;63138;55.082;38.804;2022-11-20T03:36:35;15.88;;;7.28;;
74630;SDS011;63138;55.082;38.804;2022-11-20T03:39:03;9.60;;;5.20;;
74630;SDS011;63138;55.082;38.804;2022-11-20T03:41:30;11.68;;;5.25;;
74630;SDS011;63138;55.082;38.804;2022-11-20T03:43:57;12.87;;;5.70;;
74630;SDS011;63138;55.082;38.804;2022-11-20T03:46:26;9.98;;;5.68;;
74630;SDS011;63138;55.082;38.804;2022-11-20T03:48:53;10.80;;;5.90;;
74630;SDS011;63138;55.082;38.804;2022-11-20T03:51:23;15.13;;;7.20;;
74630;SDS011;63138;55.082;38.804;2022-11-20T03:53:50;13.27;;;6.38;;
74630;SDS011;63138;55.082;38.804;2022-11-20T03:56:18;12.63;;;6.00;;
74630;SDS011;63138;55.082;38.804;2022-11-20T03:58:45;9.93;;;6.15;;
74630;SDS011;63138;55.082;38.804;2022-11-20T04:01:12;11.48;;;6.07;;
74630;SDS011;63138;55.082;38.804;2022-11-20T04:03:41;15.10;;;7.82;;
74630;SDS011;63138;55.082;38.804;2022-11-20T04:08:35;15.77;;;6.60;;
74630;SDS011;63138;55.082;38.804;2022-11-20T04:11:14;13.80;;;6.85;;
74630;SDS011;63138;55.082;38.804;2022-11-20T04:13:46;16.17;;;8.00;;
74630;SDS011;63138;55.082;38.804;2022-11-20T04:16:13;17.92;;;8.82;;
74630;SDS011;63138;55.082;38.804;2022-11-20T04:18:39;14.00;;;7.47;;
74630;SDS011;63138;55.082;38.804;2022-11-20T04:21:06;15.38;;;6.72;;
74630;SDS011;63138;55.082;38.804;2022-11-20T04:23:32;13.73;;;6.28;;
74630;SDS011;63138;55.082;38.804;2022-11-20T04:26:05;12.95;;;5.25;;
74630;SDS011;63138;55.082;38.804;2022-11-20T04:28:33;13.70;;;7.20;;
74630;SDS011;63138;55.082;38.804;2022-11-20T04:31:43;10.57;;;5.45;;
74630;SDS011;63138;55.082;38.804;2022-11-20T04:33:50;15.57;;;6.05;;
74630;SDS011;63138;55.082;38.804;2022-11-20T04:36:17;12.23;;;6.60;;
74630;SDS011;63138;55.082;38.804;2022-11-20T04:38:44;15.65;;;7.07;;
74630;SDS011;63138;55.082;38.804;2022-11-20T04:41:17;12.00;;;6.75;;
74630;SDS011;63138;55.082;38.804;2022-11-20T04:43:48;13.73;;;6.32;;
74630;SDS011;63138;55.082;38.804;2022-11-20T04:46:16;8.63;;;4.90;;
74630;SDS011;63138;55.082;38.804;2022-11-20T04:48:42;9.13;;;4.97;;
74630;SDS011;63138;55.082;38.804;2022-11-20T04:51:08;10.85;;;5.35;;
74630;SDS011;63138;55.082;38.804;2022-11-20T04:53:34;11.13;;;5.30;;
74630;SDS011;63138;55.082;38.804;2022-11-20T04:56:00;15.70;;;6.27;;
74630;SDS011;63138;55.082;38.804;2022-11-20T04:58:26;13.30;;;6.93;;
74630;SDS011;63138;55.082;38.804;2022-11-20T05:00:52;11.25;;;5.68;;
74630;SDS011;63138;55.082;38.804;2022-11-20T05:03:18;14.40;;;6.43;;
74630;SDS011;63138;55.082;38.804;2022-11-20T05:05:44;8.90;;;5.22;;
74630;SDS011;63138;55.082;38.804;2022-11-20T05:08:10;12.77;;;6.60;;
74630;SDS011;63138;55.082;38.804;2022-11-20T05:10:36;14.20;;;7.10;;
74630;SDS011;63138;55.082;38.804;2022-11-20T05:13:01;9.60;;;5.13;;
74630;SDS011;63138;55.082;38.804;2022-11-20T05:15:27;12.80;;;6.40;;
74630;SDS011;63138;55.082;38.804;2022-11-20T05:18:00;15.10;;;7.47;;
74630;SDS011;63138;55.082;38.804;2022-11-20T05:20:26;15.00;;;7.35;;
74630;SDS011;63138;55.082;38.804;2022-11-20T05:22:52;15.53;;;6.90;;
74630;SDS011;63138;55.082;38.804;2022-11-20T05:25:17;11.85;;;6.20;;
74630;SDS011;63138;55.082;38.804;2022-11-20T05:27:45;14.00;;;7.63;;
74630;SDS011;63138;55.082;38.804;2022-11-20T05:30:11;11.15;;;5.65;;
74630;SDS011;63138;55.082;38.804;2022-11-20T05:32:38;13.13;;;7.35;;
74630;SDS011;63138;55.082;38.804;2022-11-20T05:35:03;13.03;;;6.47;;
74630;SDS011;63138;55.082;38.804;2022-11-20T05:37:29;13.80;;;6.22;;
74630;SDS011;63138;55.082;38.804;2022-11-20T05:39:55;12.48;;;6.53;;
74630;SDS011;63138;55.082;38.804;2022-11-20T05:42:21;15.50;;;7.33;;
74630;SDS011;63138;55.082;38.804;2022-11-20T05:44:56;16.00;;;7.85;;
74630;SDS011;63138;55.082;38.804;2022-11-20T05:47:23;13.43;;;7.53;;
74630;SDS011;63138;55.082;38.804;2022-11-20T05:49:49;15.38;;;5.88;;
74630;SDS011;63138;55.082;38.804;2022-11-20T05:52:15;10.70;;;6.43;;
74630;SDS011;63138;55.082;38.804;2022-11-20T05:54:41;11.82;;;5.90;;
74630;SDS011;63138;55.082;38.804;2022-11-20T05:57:06;11.77;;;6.23;;
74630;SDS011;63138;55.082;38.804;2022-11-20T05:59:32;16.80;;;8.13;;
74630;SDS011;63138;55.082;38.804;2022-11-20T06:01:58;11.50;;;6.80;;
74630;SDS011;63138;55.082;38.804;2022-11-20T06:04:24;12.98;;;7.03;;
74630;SDS011;63138;55.082;38.804;2022-11-20T06:10:06;12.65;;;6.93;;
74630;SDS011;63138;55.082;38.804;2022-11-20T06:12:32;13.05;;;6.43;;
74630;SDS011;63138;55.082;38.804;2022-11-20T06:14:58;14.47;;;7.50;;
74630;SDS011;63138;55.082;38.804;2022-11-20T06:17:24;10.38;;;4.90;;
74630;SDS011;63138;55.082;38.804;2022-11-20T06:19:50;12.95;;;7.20;;
74630;SDS011;63138;55.082;38.804;2022-11-20T06:22:16;12.93;;;6.97;;
74630;SDS011;63138;55.082;38.804;2022-11-20T06:24:42;12.85;;;6.18;;
74630;SDS011;63138;55.082;38.804;2022-11-20T06:27:07;14.07;;;6.73;;
74630;SDS011;63138;55.082;38.804;2022-11-20T06:29:33;15.32;;;7.30;;
74630;SDS011;63138;55.082;38.804;2022-11-20T06:32:00;16.20;;;6.90;;
74630;SDS011;63138;55.082;38.804;2022-11-20T06:34:26;17.25;;;9.43;;
74630;SDS011;63138;55.082;38.804;2022-11-20T06:36:52;17.77;;;9.05;;
74630;SDS011;63138;55.082;38.804;2022-11-20T06:39:17;15.33;;;7.07;;
74630;SDS011;63138;55.082;38.804;2022-11-20T06:41:43;15.20;;;8.10;;
74630;SDS011;63138;55.082;38.804;2022-11-20T06:44:09;16.03;;;8.33;;
74630;SDS011;63138;55.082;38.804;2022-11-20T06:46:34;16.05;;;7.20;;
74630;SDS011;63138;55.082;38.804;2022-11-20T06:49:00;11.40;;;5.63;;
74630;SDS011;63138;55.082;38.804;2022-11-20T06:51:26;15.25;;;7.38;;
74630;SDS011;63138;55.082;38.804;2022-11-20T06:53:52;12.83;;;8.00;;
74630;SDS011;63138;55.082;38.804;2022-11-20T06:56:18;13.10;;;6.95;;
74630;SDS011;63138;55.082;38.804;2022-11-20T06:58:44;17.63;;;8.75;;
74630;SDS011;63138;55.082;38.804;2022-11-20T07:01:10;17.50;;;8.97;;
74630;SDS011;63138;55.082;38.804;2022-11-20T07:03:38;14.02;;;7.20;;
74630;SDS011;63138;55.082;38.804;2022-11-20T07:06:04;9.57;;;6.25;;
74630;SDS011;63138;55.082;38.804;2022-11-20T07:08:31;10.85;;;5.57;;
74630;SDS011;63138;55.082;38.804;2022-11-20T07:10:58;14.00;;;6.97;;
74630;SDS011;63138;55.082;38.804;2022-11-20T07:13:25;11.73;;;5.13;;
74630;SDS011;63138;55.082;38.804;2022-11-20T07:15:51;10.70;;;5.88;;
74630;SDS011;63138;55.082;38.804;2022-11-20T07:18:17;10.68;;;5.85;;
74630;SDS011;63138;55.082;38.804;2022-11-20T07:20:43;14.90;;;7.47;;
74630;SDS011;63138;55.082;38.804;2022-11-20T07:23:09;15.45;;;7.80;;
74630;SDS011;63138;55.082;38.804;2022-11-20T07:25:34;14.50;;;7.43;;
74630;SDS011;63138;55.082;38.804;2022-11-20T07:28:01;13.82;;;7.18;;
74630;SDS011;63138;55.082;38.804;2022-11-20T07:30:29;13.93;;;6.93;;
74630;SDS011;63138;55.082;38.804;2022-11-20T07:32:56;13.07;;;7.40;;
74630;SDS011;63138;55.082;38.804;2022-11-20T07:35:22;14.27;;;7.63;;
74630;SDS011;63138;55.082;38.804;2022-11-20T07:37:51;14.32;;;7.43;;
74630;SDS011;63138;55.082;38.804;2022-11-20T07:40:17;15.43;;;8.90;;
74630;SDS011;63138;55.082;38.804;2022-11-20T07:42:47;15.27;;;8.00;;
74630;SDS011;63138;55.082;38.804;2022-11-20T07:45:20;16.08;;;7.78;;
74630;SDS011;63138;55.082;38.804;2022-11-20T07:47:46;13.57;;;7.85;;
74630;SDS011;63138;55.082;38.804;2022-11-20T07:50:12;14.98;;;6.95;;
74630;SDS011;63138;55.082;38.804;2022-11-20T07:52:38;14.57;;;7.47;;
74630;SDS011;63138;55.082;38.804;2022-11-20T07:55:05;13.52;;;7.70;;
74630;SDS011;63138;55.082;38.804;2022-11-20T07:57:31;15.20;;;7.55;;
74630;SDS011;63138;55.082;38.804;2022-11-20T07:59:57;14.07;;;7.25;;
74630;SDS011;63138;55.082;38.804;2022-11-20T08:02:23;14.03;;;6.67;;
74630;SDS011;63138;55.082;38.804;2022-11-20T08:04:48;13.85;;;6.22;;
74630;SDS011;63138;55.082;38.804;2022-11-20T08:07:14;17.90;;;7.13;;
74630;SDS011;63138;55.082;38.804;2022-11-20T08:09:40;16.20;;;7.47;;
74630;SDS011;63138;55.082;38.804;2022-11-20T08:12:06;14.45;;;6.78;;
74630;SDS011;63138;55.082;38.804;2022-11-20T08:14:51;16.57;;;7.83;;
74630;SDS011;63138;55.082;38.804;2022-11-20T08:17:16;15.48;;;7.45;;
74630;SDS011;63138;55.082;38.804;2022-11-20T08:19:42;14.00;;;7.27;;
74630;SDS011;63138;55.082;38.804;2022-11-20T08:22:10;14.73;;;7.93;;
74630;SDS011;63138;55.082;38.804;2022-11-20T08:24:35;12.80;;;6.80;;
74630;SDS011;63138;55.082;38.804;2022-11-20T08:27:01;17.03;;;7.67;;
74630;SDS011;63138;55.082;38.804;2022-11-20T08:29:27;14.50;;;7.53;;
74630;SDS011;63138;55.082;38.804;2022-11-20T08:31:56;16.35;;;8.18;;
74630;SDS011;63138;55.082;38.804;2022-11-20T08:34:22;13.75;;;7.35;;
74630;SDS011;63138;55.082;38.804;2022-11-20T08:36:47;14.45;;;7.88;;
74630;SDS011;63138;55.082;38.804;2022-11-20T08:39:13;14.83;;;7.07;;
74630;SDS011;63138;55.082;38.804;2022-11-20T08:41:40;15.55;;;7.15;;
74630;SDS011;63138;55.082;38.804;2022-11-20T08:44:07;14.93;;;8.18;;
74630;SDS011;63138;55.082;38.804;2022-11-20T08:46:35;14.80;;;7.55;;
74630;SDS011;63138;55.082;38.804;2022-11-20T08:49:04;11.27;;;7.50;;
74630;SDS011;63138;55.082;38.804;2022-11-20T08:51:31;17.05;;;7.65;;
74630;SDS011;63138;55.082;38.804;2022-11-20T08:53:59;16.83;;;7.82;;
74630;SDS011;63138;55.082;38.804;2022-11-20T08:56:29;16.38;;;8.40;;
74630;SDS011;63138;55.082;38.804;2022-11-20T08:58:55;16.00;;;8.70;;
74630;SDS011;63138;55.082;38.804;2022-11-20T09:01:26;13.60;;;7.55;;
74630;SDS011;63138;55.082;38.804;2022-11-20T09:04:03;13.57;;;7.55;;
74630;SDS011;63138;55.082;38.804;2022-11-20T09:06:30;18.17;;;8.68;;
74630;SDS011;63138;55.082;38.804;2022-11-20T09:09:10;19.42;;;8.38;;
74630;SDS011;63138;55.082;38.804;2022-11-20T09:11:36;13.48;;;7.10;;
74630;SDS011;63138;55.082;38.804;2022-11-20T09:14:20;15.30;;;8.32;;
74630;SDS011;63138;55.082;38.804;2022-11-20T09:17:21;17.00;;;9.20;;
74630;SDS011;63138;55.082;38.804;2022-11-20T09:19:54;15.05;;;8.55;;
74630;SDS011;63138;55.082;38.804;2022-11-20T09:22:20;17.27;;;9.00;;
74630;SDS011;63138;55.082;38.804;2022-11-20T09:24:45;14.57;;;7.88;;
74630;SDS011;63138;55.082;38.804;2022-11-20T09:27:11;16.57;;;8.73;;
74630;SDS011;63138;55.082;38.804;2022-11-20T09:29:37;16.98;;;9.05;;
74630;SDS011;63138;55.082;38.804;2022-11-20T09:32:03;14.17;;;7.60;;
74630;SDS011;63138;55.082;38.804;2022-11-20T09:34:29;14.40;;;7.75;;
74630;SDS011;63138;55.082;38.804;2022-11-20T09:36:54;19.75;;;8.57;;
74630;SDS011;63138;55.082;38.804;2022-11-20T09:39:20;18.83;;;9.55;;
74630;SDS011;63138;55.082;38.804;2022-11-20T09:45:02;19.13;;;9.10;;
74630;SDS011;63138;55.082;38.804;2022-11-20T09:50:36;15.10;;;8.63;;
74630;SDS011;63138;55.082;38.804;2022-11-20T09:56:26;17.90;;;9.60;;
74630;SDS011;63138;55.082;38.804;2022-11-20T09:58:57;18.77;;;8.63;;
74630;SDS011;63138;55.082;38.804;2022-11-20T10:01:31;22.05;;;10.02;;
74630;SDS011;63138;55.082;38.804;2022-11-20T10:04:03;20.98;;;9.80;;
74630;SDS011;63138;55.082;38.804;2022-11-20T10:06:41;20.07;;;9.33;;
74630;SDS011;63138;55.082;38.804;2022-11-20T10:11:48;24.13;;;11.60;;
74630;SDS011;63138;55.082;38.804;2022-11-20T10:17:02;22.85;;;11.45;;
74630;SDS011;63138;55.082;38.804;2022-11-20T10:31:11;26.38;;;11.85;;
74630;SDS011;63138;55.082;38.804;2022-11-20T10:33:48;23.58;;;10.85;;
74630;SDS011;63138;55.082;38.804;2022-11-20T10:36:30;27.10;;;11.85;;
74630;SDS011;63138;55.082;38.804;2022-11-20T10:39:16;22.05;;;10.15;;
74630;SDS011;63138;55.082;38.804;2022-11-20T10:41:49;25.27;;;12.18;;
74630;SDS011;63138;55.082;38.804;2022-11-20T10:44:24;23.02;;;11.32;;
74630;SDS011;63138;55.082;38.804;2022-11-20T10:47:15;25.58;;;12.18;;
74630;SDS011;63138;55.082;38.804;2022-11-20T10:49:54;22.95;;;11.55;;
74630;SDS011;63138;55.082;38.804;2022-11-20T10:57:46;24.85;;;11.60;;
74630;SDS011;63138;55.082;38.804;2022-11-20T11:00:17;20.70;;;9.93;;
74630;SDS011;63138;55.082;38.804;2022-11-20T11:02:53;24.52;;;10.65;;
74630;SDS011;63138;55.082;38.804;2022-11-20T11:05:22;29.60;;;12.05;;
74630;SDS011;63138;55.082;38.804;2022-11-20T11:08:29;24.05;;;12.15;;
74630;SDS011;63138;55.082;38.804;2022-11-20T11:11:02;29.75;;;12.38;;
74630;SDS011;63138;55.082;38.804;2022-11-20T11:14:06;22.10;;;9.85;;
74630;SDS011;63138;55.082;38.804;2022-11-20T11:16:33;22.85;;;11.07;;
74630;SDS011;63138;55.082;38.804;2022-11-20T11:19:06;31.25;;;13.27;;
74630;SDS011;63138;55.082;38.804;2022-11-20T11:21:37;20.55;;;9.02;;
74630;SDS011;63138;55.082;38.804;2022-11-20T11:24:15;27.50;;;12.27;;
74630;SDS011;63138;55.082;38.804;2022-11-20T11:27:11;25.92;;;10.93;;
74630;SDS011;63138;55.082;38.804;2022-11-20T11:29:38;32.53;;;13.82;;
74630;SDS011;63138;55.082;38.804;2022-11-20T11:35:06;31.00;;;13.10;;
74630;SDS011;63138;55.082;38.804;2022-11-20T11:37:43;30.93;;;12.70;;
74630;SDS011;63138;55.082;38.804;2022-11-20T11:40:12;22.25;;;10.57;;
74630;SDS011;63138;55.082;38.804;2022-11-20T11:42:42;36.15;;;15.02;;
74630;SDS011;63138;55.082;38.804;2022-11-20T11:45:16;27.10;;;12.85;;
74630;SDS011;63138;55.082;38.804;2022-11-20T11:50:14;34.13;;;14.40;;
74630;SDS011;63138;55.082;38.804;2022-11-20T11:52:56;33.90;;;15.15;;
74630;SDS011;63138;55.082;38.804;2022-11-20T11:58:33;30.52;;;14.52;;
74630;SDS011;63138;55.082;38.804;2022-11-20T12:04:17;29.03;;;11.53;;
74630;SDS011;63138;55.082;38.804;2022-11-20T12:06:51;23.33;;;10.63;;
74630;SDS011;63138;55.082;38.804;2022-11-20T12:09:24;37.03;;;15.23;;
74630;SDS011;63138;55.082;38.804;2022-11-20T12:12:04;34.63;;;14.60;;
74630;SDS011;63138;55.082;38.804;2022-11-20T12:14:37;31.58;;;13.73;;
74630;SDS011;63138;55.082;38.804;2022-11-20T12:17:13;35.40;;;16.27;;
74630;SDS011;63138;55.082;38.804;2022-11-20T12:19:39;25.67;;;10.45;;
74630;SDS011;63138;55.082;38.804;2022-11-20T12:43:42;34.37;;;15.03;;
74630;SDS011;63138;55.082;38.804;2022-11-20T12:46:42;24.98;;;11.40;;
74630;SDS011;63138;55.082;38.804;2022-11-20T12:52:20;27.63;;;11.45;;
74630;SDS011;63138;55.082;38.804;2022-11-20T12:57:51;27.63;;;12.87;;
74630;SDS011;63138;55.082;38.804;2022-11-20T13:00:19;28.60;;;13.70;;
74630;SDS011;63138;55.082;38.804;2022-11-20T13:05:37;26.30;;;11.30;;
74630;SDS011;63138;55.082;38.804;2022-11-20T13:08:39;26.52;;;11.98;;
74630;SDS011;63138;55.082;38.804;2022-11-20T13:11:13;28.20;;;12.00;;
74630;SDS011;63138;55.082;38.804;2022-11-20T13:19:16;20.85;;;8.68;;
74630;SDS011;63138;55.082;38.804;2022-11-20T13:21:44;25.80;;;11.75;;
74630;SDS011;63138;55.082;38.804;2022-11-20T13:26:45;21.95;;;11.95;;
74630;SDS011;63138;55.082;38.804;2022-11-20T13:29:16;23.05;;;10.40;;
74630;SDS011;63138;55.082;38.804;2022-11-20T13:31:44;24.65;;;10.70;;
74630;SDS011;63138;55.082;38.804;2022-11-20T13:34:33;21.00;;;10.48;;
74630;SDS011;63138;55.082;38.804;2022-11-20T13:36:59;27.23;;;11.57;;
74630;SDS011;63138;55.082;38.804;2022-11-20T13:39:27;23.77;;;11.48;;
74630;SDS011;63138;55.082;38.804;2022-11-20T13:41:56;17.88;;;8.52;;
74630;SDS011;63138;55.082;38.804;2022-11-20T13:44:25;19.25;;;10.30;;
74630;SDS011;63138;55.082;38.804;2022-11-20T13:46:55;21.33;;;10.68;;
74630;SDS011;63138;55.082;38.804;2022-11-20T14:00:25;31.80;;;15.23;;
74630;SDS011;63138;55.082;38.804;2022-11-20T14:05:50;19.23;;;9.90;;
74630;SDS011;63138;55.082;38.804;2022-11-20T14:08:25;20.42;;;10.57;;
74630;SDS011;63138;55.082;38.804;2022-11-20T14:11:30;24.95;;;11.88;;
74630;SDS011;63138;55.082;38.804;2022-11-20T14:14:00;26.02;;;11.18;;
74630;SDS011;63138;55.082;38.804;2022-11-20T14:16:38;20.00;;;10.83;;
74630;SDS011;63138;55.082;38.804;2022-11-20T14:21:46;21.58;;;10.43;;
74630;SDS011;63138;55.082;38.804;2022-11-20T14:24:14;23.85;;;11.07;;
74630;SDS011;63138;55.082;38.804;2022-11-20T14:26:46;22.15;;;10.45;;
74630;SDS011;63138;55.082;38.804;2022-11-20T14:29:20;18.30;;;8.40;;
74630;SDS011;63138;55.082;38.804;2022-11-20T14:31:52;19.27;;;8.93;;
74630;SDS011;63138;55.082;38.804;2022-11-20T14:34:29;22.88;;;12.13;;
74630;SDS011;63138;55.082;38.804;2022-11-20T14:37:02;26.13;;;10.70;;
74630;SDS011;63138;55.082;38.804;2022-11-20T14:39:34;33.88;;;14.30;;
74630;SDS011;63138;55.082;38.804;2022-11-20T14:42:18;34.50;;;13.17;;
74630;SDS011;63138;55.082;38.804;2022-11-20T14:44:47;31.55;;;13.73;;
74630;SDS011;63138;55.082;38.804;2022-11-20T14:47:32;43.33;;;17.27;;
74630;SDS011;63138;55.082;38.804;2022-11-20T14:50:01;36.50;;;14.90;;
74630;SDS011;63138;55.082;38.804;2022-11-20T14:52:29;48.90;;;17.00;;
74630;SDS011;63138;55.082;38.804;2022-11-20T14:54:57;42.73;;;16.53;;
74630;SDS011;63138;55.082;38.804;2022-11-20T14:57:33;35.85;;;14.18;;
74630;SDS011;63138;55.082;38.804;2022-11-20T15:02:30;48.97;;;15.85;;
74630;SDS011;63138;55.082;38.804;2022-11-20T15:05:00;49.13;;;17.70;;
74630;SDS011;63138;55.082;38.804;2022-11-20T15:07:31;46.07;;;16.83;;
74630;SDS011;63138;55.082;38.804;2022-11-20T15:12:37;49.38;;;17.67;;
74630;SDS011;63138;55.082;38.804;2022-11-20T15:15:06;40.70;;;17.45;;
74630;SDS011;63138;55.082;38.804;2022-11-20T15:17:39;41.72;;;14.95;;
74630;SDS011;63138;55.082;38.804;2022-11-20T15:20:09;42.37;;;15.97;;
74630;SDS011;63138;55.082;38.804;2022-11-20T15:22:41;46.67;;;17.83;;
74630;SDS011;63138;55.082;38.804;2022-11-20T15:25:14;83.20;;;27.75;;
74630;SDS011;63138;55.082;38.804;2022-11-20T15:27:42;54.50;;;22.02;;
74630;SDS011;63138;55.082;38.804;2022-11-20T15:30:16;73.10;;;24.45;;
74630;SDS011;63138;55.082;38.804;2022-11-20T15:32:44;49.53;;;17.10;;
74630;SDS011;63138;55.082;38.804;2022-11-20T15:35:11;50.30;;;18.77;;
74630;SDS011;63138;55.082;38.804;2022-11-20T15:37:38;43.60;;;17.30;;
74630;SDS011;63138;55.082;38.804;2022-11-20T15:40:05;39.78;;;15.20;;
74630;SDS011;63138;55.082;38.804;2022-11-20T15:42:32;41.42;;;15.77;;
74630;SDS011;63138;55.082;38.804;2022-11-20T15:44:58;46.10;;;17.13;;
74630;SDS011;63138;55.082;38.804;2022-11-20T15:47:26;42.13;;;14.52;;
74630;SDS011;63138;55.082;38.804;2022-11-20T15:49:55;36.08;;;11.50;;
74630;SDS011;63138;55.082;38.804;2022-11-20T15:52:21;48.05;;;17.00;;
74630;SDS011;63138;55.082;38.804;2022-11-20T15:54:47;44.67;;;17.13;;
74630;SDS011;63138;55.082;38.804;2022-11-20T15:57:13;41.33;;;14.20;;
74630;SDS011;63138;55.082;38.804;2022-11-20T15:59:39;51.67;;;17.92;;
74630;SDS011;63138;55.082;38.804;2022-11-20T16:02:13;48.35;;;15.77;;
74630;SDS011;63138;55.082;38.804;2022-11-20T16:04:41;50.03;;;17.73;;
74630;SDS011;63138;55.082;38.804;2022-11-20T16:07:07;49.33;;;19.23;;
74630;SDS011;63138;55.082;38.804;2022-11-20T16:09:34;40.10;;;16.08;;
74630;SDS011;63138;55.082;38.804;2022-11-20T16:12:00;33.75;;;12.43;;
74630;SDS011;63138;55.082;38.804;2022-11-20T16:14:26;49.10;;;16.92;;
74630;SDS011;63138;55.082;38.804;2022-11-20T16:17:10;47.78;;;16.55;;
74630;SDS011;63138;55.082;38.804;2022-11-20T16:19:37;45.37;;;14.80;;
74630;SDS011;63138;55.082;38.804;2022-11-20T16:22:03;49.50;;;16.85;;
74630;SDS011;63138;55.082;38.804;2022-11-20T16:24:29;47.65;;;17.67;;
74630;SDS011;63138;55.082;38.804;2022-11-20T16:26:56;40.90;;;15.45;;
74630;SDS011;63138;55.082;38.804;2022-11-20T16:29:22;50.08;;;17.35;;
74630;SDS011;63138;55.082;38.804;2022-11-20T16:31:48;54.43;;;19.97;;
74630;SDS011;63138;55.082;38.804;2022-11-20T16:34:15;54.33;;;17.92;;